Time;durP1;ratioP1;P1;durP2;ratioP2;P2;SDS_P1;SDS_P2;PMS_P1;PMS_P2;Temp;Humidity;BMP_temperature;BMP_pressure;BME280_temperature;BME280_humidity;BME280_pressure;Samples;Min_cycle;Max_cycle;Signal;HPM_P1;HPM_P2
2023/06/21 00:01:38;;;;;;;12.82;8.25;;;17.50;99.90;;;;;;5008993;28;20708;-87
2023/06/21 00:04:07;;;;;;;18.48;9.10;;;17.40;99.90;;;;;;5014948;28;20165;-88
2023/06/21 00:06:34;;;;;;;13.90;8.95;;;17.40;99.90;;;;;;5014133;28;20227;-88
2023/06/21 00:09:04;;;;;;;14.85;9.07;;;17.40;99.90;;;;;;5013943;28;20189;-88
2023/06/21 00:11:31;;;;;;;16.02;8.63;;;17.30;99.90;;;;;;5014073;28;20177;-88
2023/06/21 00:13:56;;;;;;;12.48;8.82;;;17.30;99.90;;;;;;5013622;28;20276;-88
2023/06/21 00:16:23;;;;;;;13.85;9.40;;;17.30;99.90;;;;;;4980334;28;20268;-88
2023/06/21 00:18:49;;;;;;;15.57;9.43;;;17.20;99.90;;;;;;5013629;28;20242;-88
2023/06/21 00:21:14;;;;;;;12.75;9.05;;;17.20;99.90;;;;;;5013807;28;20177;-88
2023/06/21 00:23:42;;;;;;;13.82;8.60;;;17.20;99.90;;;;;;5013968;28;20268;-88
2023/06/21 00:26:08;;;;;;;13.52;8.48;;;17.20;99.90;;;;;;5013494;28;20535;-88
2023/06/21 00:28:34;;;;;;;15.63;9.13;;;17.20;99.90;;;;;;4995627;28;20229;-88
2023/06/21 00:30:59;;;;;;;13.55;9.05;;;17.10;99.90;;;;;;5013318;28;20190;-88
2023/06/21 00:33:25;;;;;;;11.75;8.10;;;17.10;99.90;;;;;;5013426;28;20256;-88
2023/06/21 00:35:51;;;;;;;15.23;9.18;;;17.10;99.90;;;;;;5013491;28;20181;-88
2023/06/21 00:38:17;;;;;;;19.35;8.35;;;17.10;99.90;;;;;;4996363;28;20539;-87
2023/06/21 00:40:43;;;;;;;12.93;8.07;;;17.00;99.90;;;;;;5017143;28;20181;-87
2023/06/21 00:43:09;;;;;;;13.75;8.07;;;17.00;99.90;;;;;;5017754;28;20230;-87
2023/06/21 00:45:45;;;;;;;15.02;9.52;;;17.00;99.90;;;;;;5019137;28;20693;-88
2023/06/21 00:48:11;;;;;;;15.77;8.95;;;16.90;99.90;;;;;;5015826;28;20204;-87
2023/06/21 00:50:39;;;;;;;11.43;8.02;;;16.90;99.90;;;;;;5019014;28;20190;-87
2023/06/21 00:53:05;;;;;;;14.13;8.70;;;16.90;99.90;;;;;;5032613;28;20245;-86
2023/06/21 00:55:32;;;;;;;14.30;8.63;;;17.00;99.90;;;;;;5018804;28;20653;-86
2023/06/21 00:57:58;;;;;;;11.50;8.43;;;16.90;99.90;;;;;;5017089;28;20259;-86
2023/06/21 01:00:25;;;;;;;13.20;8.98;;;16.90;99.90;;;;;;5017587;28;20736;-86
2023/06/21 01:02:53;;;;;;;13.10;8.80;;;16.90;99.90;;;;;;5017232;28;20267;-82
2023/06/21 01:05:20;;;;;;;14.98;9.18;;;16.90;99.90;;;;;;5016926;28;20311;-86
2023/06/21 01:08:01;;;;;;;16.00;9.05;;;16.80;99.90;;;;;;4999508;28;20569;-86
2023/06/21 01:10:39;;;;;;;12.70;8.98;;;16.80;99.90;;;;;;5017065;28;20169;-86
2023/06/21 01:13:20;;;;;;;14.65;9.48;;;16.70;99.90;;;;;;5016742;28;20223;-86
2023/06/21 01:15:50;;;;;;;15.35;9.57;;;16.70;99.90;;;;;;5016966;28;20173;-86
2023/06/21 01:18:19;;;;;;;15.27;8.93;;;16.70;99.90;;;;;;5016695;28;20186;-86
2023/06/21 01:20:51;;;;;;;13.70;9.10;;;16.60;99.90;;;;;;5017031;28;20187;-86
2023/06/21 01:23:38;;;;;;;17.50;9.55;;;16.60;99.90;;;;;;5016073;28;20205;-87
2023/06/21 01:26:23;;;;;;;13.27;8.35;;;16.60;99.90;;;;;;5016890;28;20176;-86
2023/06/21 01:29:11;;;;;;;17.08;9.57;;;16.60;99.90;;;;;;5017060;28;20681;-87
2023/06/21 01:31:42;;;;;;;16.92;9.52;;;16.60;99.90;;;;;;5016714;28;20537;-86
2023/06/21 01:34:10;;;;;;;16.05;10.13;;;16.60;99.90;;;;;;5016806;28;20631;-86
2023/06/21 01:36:39;;;;;;;17.08;10.15;;;16.50;99.90;;;;;;5018743;28;20716;-86
2023/06/21 01:39:08;;;;;;;16.27;9.90;;;16.60;99.90;;;;;;5022607;28;20239;-86
2023/06/21 01:41:35;;;;;;;15.18;9.05;;;16.50;99.90;;;;;;5040829;28;20209;-84
2023/06/21 01:44:05;;;;;;;14.93;9.63;;;16.50;99.90;;;;;;5040841;28;20169;-83
2023/06/21 01:46:31;;;;;;;14.85;9.23;;;16.50;99.90;;;;;;5041039;28;20177;-85
2023/06/21 01:49:00;;;;;;;17.35;9.55;;;16.50;99.90;;;;;;5040882;28;20189;-85
2023/06/21 01:51:26;;;;;;;15.07;8.85;;;16.50;99.90;;;;;;5024885;28;20181;-87
2023/06/21 01:53:53;;;;;;;17.98;10.10;;;16.50;99.90;;;;;;5016229;28;20230;-86
2023/06/21 01:56:19;;;;;;;16.40;9.55;;;16.50;99.90;;;;;;4998258;28;20609;-86
2023/06/21 01:58:46;;;;;;;15.77;9.07;;;16.40;99.90;;;;;;5016273;28;20180;-87
2023/06/21 02:01:12;;;;;;;14.77;9.40;;;16.40;99.90;;;;;;5015889;28;20181;-86
2023/06/21 02:03:44;;;;;;;15.60;9.35;;;16.40;99.90;;;;;;5016262;28;20181;-86
2023/06/21 02:06:11;;;;;;;16.33;9.93;;;16.30;99.90;;;;;;5016075;28;20244;-86
2023/06/21 02:08:38;;;;;;;17.10;10.10;;;16.30;99.90;;;;;;4999533;28;20552;-86
2023/06/21 02:11:04;;;;;;;16.60;9.30;;;16.30;99.90;;;;;;5024526;28;20171;-84
2023/06/21 02:13:30;;;;;;;20.10;10.32;;;16.30;99.90;;;;;;5023286;28;20181;-85
2023/06/21 02:15:56;;;;;;;22.13;10.57;;;16.30;99.90;;;;;;5040617;28;20162;-85
2023/06/21 02:18:23;;;;;;;15.40;9.15;;;16.30;99.90;;;;;;5029999;28;20197;-86
2023/06/21 02:20:50;;;;;;;18.27;11.02;;;16.20;99.90;;;;;;4998409;28;20178;-86
2023/06/21 02:23:15;;;;;;;16.80;10.05;;;16.20;99.90;;;;;;5015543;28;20201;-86
2023/06/21 02:25:41;;;;;;;15.10;9.45;;;16.20;99.90;;;;;;5015731;28;20188;-86
2023/06/21 02:28:07;;;;;;;18.60;10.48;;;16.30;99.90;;;;;;5015102;28;20237;-87
2023/06/21 02:30:32;;;;;;;17.42;9.75;;;16.20;99.90;;;;;;5015841;28;20652;-87
2023/06/21 02:32:58;;;;;;;18.10;10.48;;;16.30;99.90;;;;;;5015795;28;20181;-87
2023/06/21 02:35:24;;;;;;;22.08;10.68;;;16.20;99.90;;;;;;5014264;28;20660;-87
2023/06/21 02:37:50;;;;;;;15.48;9.85;;;16.20;99.90;;;;;;5014075;28;20180;-86
2023/06/21 02:40:15;;;;;;;17.67;10.35;;;16.20;99.90;;;;;;5015119;28;20220;-86
2023/06/21 02:42:41;;;;;;;18.45;10.20;;;16.20;99.90;;;;;;5015277;28;20240;-86
2023/06/21 02:45:09;;;;;;;15.80;10.23;;;16.10;99.90;;;;;;5015359;28;20220;-85
2023/06/21 02:47:35;;;;;;;19.38;9.98;;;16.10;99.90;;;;;;5015101;28;20197;-87
2023/06/21 02:50:02;;;;;;;14.80;8.80;;;16.20;99.90;;;;;;5015244;28;20272;-86
2023/06/21 02:52:27;;;;;;;17.17;10.30;;;16.20;99.90;;;;;;5015220;28;20272;-86
2023/06/21 02:54:53;;;;;;;16.15;9.48;;;16.20;99.90;;;;;;5015183;28;20256;-87
2023/06/21 02:57:19;;;;;;;15.07;9.52;;;16.20;99.90;;;;;;5014890;28;20212;-86
2023/06/21 02:59:47;;;;;;;16.02;9.02;;;16.20;99.90;;;;;;5014605;28;20564;-86
2023/06/21 03:02:13;;;;;;;16.75;9.70;;;16.20;99.90;;;;;;5013625;28;20208;-86
2023/06/21 03:04:39;;;;;;;18.63;10.15;;;16.30;99.90;;;;;;5014845;28;20188;-86
2023/06/21 03:07:05;;;;;;;14.95;9.82;;;16.20;99.90;;;;;;5014781;28;20173;-86
2023/06/21 03:09:32;;;;;;;16.50;9.13;;;16.30;99.90;;;;;;4997297;28;20204;-86
2023/06/21 03:11:58;;;;;;;17.90;9.50;;;16.30;99.90;;;;;;5015124;28;20630;-88
2023/06/21 03:14:23;;;;;;;15.88;9.05;;;16.30;99.90;;;;;;5014785;28;20638;-89
2023/06/21 03:16:52;;;;;;;15.50;9.55;;;16.40;99.90;;;;;;5014546;28;20280;-89
2023/06/21 03:19:18;;;;;;;17.90;9.95;;;16.40;99.90;;;;;;4997695;28;20720;-87
2023/06/21 03:21:43;;;;;;;13.57;9.05;;;16.40;99.90;;;;;;5014631;28;20295;-88
2023/06/21 03:24:09;;;;;;;16.05;8.95;;;16.50;99.90;;;;;;5014808;28;20184;-87
2023/06/21 03:26:35;;;;;;;15.07;9.93;;;16.50;99.90;;;;;;5014137;28;20185;-87
2023/06/21 03:29:02;;;;;;;17.33;8.75;;;16.60;99.90;;;;;;5014617;28;20661;-88
2023/06/21 03:31:28;;;;;;;14.52;9.95;;;16.60;99.90;;;;;;5014224;28;20199;-88
2023/06/21 03:33:54;;;;;;;13.90;8.95;;;16.60;99.90;;;;;;5014745;28;20169;-87
2023/06/21 03:36:20;;;;;;;15.95;9.07;;;16.60;99.90;;;;;;5014584;28;20212;-88
2023/06/21 03:38:46;;;;;;;13.85;8.75;;;16.70;99.90;;;;;;5014550;28;20252;-87
2023/06/21 03:41:12;;;;;;;14.25;9.15;;;16.70;99.90;;;;;;5013869;28;20212;-87
2023/06/21 03:43:37;;;;;;;13.25;8.18;;;16.70;99.90;;;;;;5013711;28;20181;-86
2023/06/21 03:46:03;;;;;;;19.35;8.77;;;16.80;99.90;;;;;;5013114;28;20217;-86
2023/06/21 03:48:29;;;;;;;16.20;9.43;;;16.80;99.90;;;;;;5013994;28;20180;-86
2023/06/21 03:50:54;;;;;;;15.85;8.27;;;16.90;99.90;;;;;;5013346;28;20673;-87
2023/06/21 03:53:20;;;;;;;13.80;8.60;;;17.00;99.90;;;;;;5012944;28;20653;-86
2023/06/21 03:55:46;;;;;;;16.70;9.35;;;17.10;99.90;;;;;;4995769;28;20227;-86
2023/06/21 03:58:12;;;;;;;13.77;8.68;;;17.10;99.90;;;;;;4995715;28;20192;-86
2023/06/21 04:00:38;;;;;;;14.95;8.68;;;17.20;99.90;;;;;;5013254;28;20178;-86
2023/06/21 04:03:04;;;;;;;16.38;8.93;;;17.20;99.90;;;;;;5013119;28;20681;-87
2023/06/21 04:05:30;;;;;;;12.10;8.43;;;17.30;99.90;;;;;;5013599;28;20184;-87
2023/06/21 04:07:55;;;;;;;13.13;8.75;;;17.40;99.90;;;;;;5013410;28;20442;-85
2023/06/21 04:10:21;;;;;;;16.92;8.73;;;17.50;99.90;;;;;;4987167;28;20209;-86
2023/06/21 04:12:47;;;;;;;15.98;8.82;;;17.50;99.90;;;;;;4985359;28;20173;-85
2023/06/21 04:15:12;;;;;;;15.18;8.20;;;17.60;99.90;;;;;;4975863;28;20702;-85
2023/06/21 04:17:38;;;;;;;15.73;9.57;;;17.70;99.90;;;;;;4992863;28;20178;-85
2023/06/21 04:20:13;;;;;;;19.23;9.25;;;17.90;99.90;;;;;;4993180;28;20523;-86
2023/06/21 04:22:40;;;;;;;14.02;8.70;;;18.00;99.90;;;;;;5002234;28;20216;-86
2023/06/21 04:25:10;;;;;;;16.95;9.45;;;18.10;99.90;;;;;;4988159;28;20186;-88
2023/06/21 04:27:39;;;;;;;14.48;8.48;;;18.20;99.90;;;;;;4994401;28;20320;-89
2023/06/21 04:30:09;;;;;;;11.15;7.93;;;18.30;99.90;;;;;;5013317;28;20187;-88
2023/06/21 04:32:35;;;;;;;11.70;8.63;;;18.50;99.90;;;;;;5012041;28;20197;-88
2023/06/21 04:35:01;;;;;;;12.20;8.15;;;18.60;99.90;;;;;;5006724;28;20243;-94
2023/06/21 04:37:28;;;;;;;12.40;8.32;;;18.70;99.90;;;;;;4994705;28;20185;-92
2023/06/21 04:39:54;;;;;;;14.65;9.10;;;18.70;99.90;;;;;;4994062;28;20535;-94
2023/06/21 04:42:20;;;;;;;12.25;8.45;;;18.90;99.90;;;;;;4994347;28;20217;-90
2023/06/21 04:44:49;;;;;;;13.25;8.88;;;19.00;99.90;;;;;;4989891;28;20276;-93
2023/06/21 04:47:16;;;;;;;13.75;8.02;;;19.10;99.90;;;;;;4983693;28;20637;-93
2023/06/21 04:49:41;;;;;;;13.88;8.77;;;19.30;99.90;;;;;;5006499;28;20182;-92
2023/06/21 04:52:09;;;;;;;14.32;8.73;;;19.40;99.90;;;;;;5004134;28;20642;-94
2023/06/21 04:54:36;;;;;;;14.90;8.82;;;19.60;99.90;;;;;;4975346;28;20196;-93
2023/06/21 04:57:06;;;;;;;11.52;7.65;;;19.70;99.90;;;;;;5010033;28;20189;-94
2023/06/21 04:59:32;;;;;;;9.88;7.00;;;19.90;99.90;;;;;;4978669;28;20214;-92
2023/06/21 05:01:58;;;;;;;11.95;8.07;;;20.00;99.90;;;;;;4996926;28;20233;-95
2023/06/21 05:04:24;;;;;;;11.85;7.35;;;20.10;99.90;;;;;;4996110;28;20189;-94
2023/06/21 05:06:49;;;;;;;9.57;7.55;;;20.20;99.90;;;;;;4997567;28;20185;-95
2023/06/21 05:09:15;;;;;;;16.92;7.70;;;20.30;99.90;;;;;;5002747;28;20609;-96
2023/06/21 05:11:41;;;;;;;9.68;7.40;;;20.40;99.90;;;;;;5012028;28;20300;-95
2023/06/21 05:14:06;;;;;;;13.02;7.85;;;20.40;99.90;;;;;;4997332;28;20272;-94
2023/06/21 05:16:32;;;;;;;11.00;7.15;;;20.50;99.90;;;;;;5016754;28;20181;-93
2023/06/21 05:18:58;;;;;;;9.05;6.95;;;20.60;99.90;;;;;;5012777;28;20657;-95
2023/06/21 05:21:23;;;;;;;14.85;7.18;;;20.70;99.90;;;;;;5009537;28;20342;-95
2023/06/21 05:23:49;;;;;;;9.77;7.25;;;20.70;99.90;;;;;;5006946;28;20240;-95
2023/06/21 05:26:14;;;;;;;11.90;7.55;;;20.80;99.90;;;;;;5002899;28;20189;-95
2023/06/21 05:28:40;;;;;;;10.60;6.85;;;21.00;99.90;;;;;;4981228;28;20230;-95
2023/06/21 05:31:06;;;;;;;9.27;6.82;;;21.00;99.90;;;;;;5011611;28;20195;-94
2023/06/21 05:33:31;;;;;;;11.38;7.18;;;21.00;99.90;;;;;;4993536;28;20261;-93
2023/06/21 05:35:57;;;;;;;10.60;7.22;;;20.90;99.90;;;;;;5001793;28;20177;-93
2023/06/21 05:38:22;;;;;;;10.18;7.45;;;20.90;99.90;;;;;;4990685;28;20193;-94
2023/06/21 05:40:48;;;;;;;11.07;7.40;;;20.90;99.90;;;;;;5010334;28;20186;-95
2023/06/21 05:43:14;;;;;;;13.63;8.07;;;21.00;99.90;;;;;;5000236;28;20214;-94
2023/06/21 05:45:39;;;;;;;10.18;7.30;;;21.00;99.90;;;;;;4997999;28;20553;-93
2023/06/21 05:48:05;;;;;;;8.65;7.00;;;21.00;99.90;;;;;;4997687;28;20185;-94
2023/06/21 05:50:31;;;;;;;18.05;8.20;;;21.00;99.90;;;;;;5003033;28;20182;-89
2023/06/21 05:52:57;;;;;;;9.75;6.78;;;21.10;99.90;;;;;;5015807;28;20181;-95
2023/06/21 05:55:23;;;;;;;10.05;6.32;;;21.30;99.90;;;;;;5004696;28;20170;-95
2023/06/21 05:57:49;;;;;;;8.70;6.63;;;21.40;99.90;;;;;;4999438;28;20657;-94
2023/06/21 06:00:16;;;;;;;10.07;7.25;;;21.60;99.90;;;;;;4998842;28;20841;-95
2023/06/21 06:02:42;;;;;;;10.70;7.80;;;21.80;99.90;;;;;;4989279;28;20632;-95
2023/06/21 06:05:08;;;;;;;8.88;6.28;;;21.90;99.90;;;;;;5015580;28;20193;-94
2023/06/21 06:07:34;;;;;;;8.30;6.28;;;22.10;99.90;;;;;;5016641;28;20217;-93
2023/06/21 06:10:00;;;;;;;11.32;6.63;;;22.20;99.90;;;;;;5010807;28;20186;-95
2023/06/21 06:12:25;;;;;;;10.68;6.75;;;22.40;99.90;;;;;;4996750;28;20235;-96
2023/06/21 06:14:51;;;;;;;7.60;6.32;;;22.50;99.90;;;;;;4993034;28;20650;-91
2023/06/21 06:17:17;;;;;;;10.52;6.22;;;22.70;99.90;;;;;;5008356;28;20705;-91
2023/06/21 06:19:42;;;;;;;9.98;6.18;;;22.80;99.90;;;;;;5008289;28;20557;-94
2023/06/21 06:22:08;;;;;;;7.95;5.97;;;23.00;99.90;;;;;;4995765;28;20572;-93
2023/06/21 06:24:34;;;;;;;8.95;5.82;;;23.20;99.90;;;;;;5010177;28;20189;-92
2023/06/21 06:26:59;;;;;;;9.73;6.13;;;23.40;99.90;;;;;;4990264;28;20315;-93
2023/06/21 06:29:25;;;;;;;8.20;6.57;;;23.50;99.90;;;;;;4996424;28;20389;-94
2023/06/21 06:31:51;;;;;;;5.95;5.22;;;23.60;99.90;;;;;;4996786;28;20193;-94
2023/06/21 06:34:17;;;;;;;7.50;5.95;;;23.70;99.90;;;;;;4997902;28;20185;-94
2023/06/21 06:36:43;;;;;;;7.00;5.70;;;23.90;99.90;;;;;;4998313;28;20180;-93
2023/06/21 06:39:09;;;;;;;7.78;5.82;;;24.00;99.90;;;;;;5010228;28;20222;-93
2023/06/21 06:41:35;;;;;;;8.55;5.47;;;24.00;99.90;;;;;;5019067;28;20224;-92
2023/06/21 06:44:00;;;;;;;6.53;5.38;;;24.00;99.90;;;;;;5017869;28;20190;-94
2023/06/21 06:46:26;;;;;;;6.03;5.35;;;24.00;99.90;;;;;;5019561;28;20166;-94
2023/06/21 06:48:52;;;;;;;5.90;5.10;;;24.10;99.90;;;;;;5019643;28;20174;-92
2023/06/21 06:51:18;;;;;;;8.63;5.70;;;24.20;99.90;;;;;;5020197;28;20177;-94
2023/06/21 06:53:43;;;;;;;6.72;5.65;;;24.30;99.90;;;;;;5018036;28;20547;-95
2023/06/21 06:56:09;;;;;;;7.90;5.32;;;24.40;99.90;;;;;;4998958;28;20213;-94
2023/06/21 06:58:35;;;;;;;8.52;5.65;;;24.50;99.90;;;;;;4999203;28;20182;-95
2023/06/21 07:01:05;;;;;;;6.38;4.97;;;24.60;99.90;;;;;;4999547;28;20196;-95
2023/06/21 07:03:31;;;;;;;7.13;5.65;;;24.70;99.90;;;;;;5000255;28;20233;-95
2023/06/21 07:05:56;;;;;;;6.75;5.20;;;24.70;99.90;;;;;;5001580;28;20188;-92
2023/06/21 07:08:22;;;;;;;7.68;5.43;;;24.80;99.90;;;;;;5019379;28;20189;-91
2023/06/21 07:10:48;;;;;;;8.60;5.65;;;25.00;99.90;;;;;;5019680;28;20170;-88
2023/06/21 07:13:13;;;;;;;6.78;5.28;;;25.10;99.90;;;;;;5019470;28;20189;-92
2023/06/21 07:15:39;;;;;;;5.53;4.95;;;25.30;99.90;;;;;;5017038;28;20186;-94
2023/06/21 07:18:05;;;;;;;6.53;4.90;;;25.40;99.90;;;;;;4998284;28;20193;-94
2023/06/21 07:20:31;;;;;;;10.13;5.32;;;25.40;99.90;;;;;;4998835;28;20615;-95
2023/06/21 07:22:57;;;;;;;5.85;4.72;;;25.50;99.90;;;;;;4998812;28;20198;-95
2023/06/21 07:25:23;;;;;;;5.78;5.00;;;25.50;99.90;;;;;;4998751;28;20193;-95
2023/06/21 07:27:49;;;;;;;6.05;5.03;;;25.50;99.90;;;;;;5010374;28;20229;-94
2023/06/21 07:30:16;;;;;;;5.88;5.07;;;25.60;97.70;;;;;;5002115;28;20251;-95
2023/06/21 07:32:43;;;;;;;5.70;4.78;;;25.60;96.80;;;;;;5017676;28;20614;-95
2023/06/21 07:35:09;;;;;;;5.68;5.07;;;25.60;97.10;;;;;;5018426;28;20176;-95
2023/06/21 07:37:35;;;;;;;5.82;5.05;;;25.80;98.10;;;;;;5002530;28;20192;-94
2023/06/21 07:40:01;;;;;;;5.50;4.75;;;25.90;98.10;;;;;;5000645;28;20174;-95
2023/06/21 07:42:26;;;;;;;5.70;4.60;;;26.10;97.10;;;;;;5025887;28;20574;-96
2023/06/21 07:44:54;;;;;;;7.25;4.00;;;26.10;95.20;;;;;;4994876;28;20180;-95
2023/06/21 07:47:20;;;;;;;5.97;4.55;;;26.20;92.20;;;;;;5026259;28;20191;-95
2023/06/21 07:49:46;;;;;;;5.30;4.55;;;26.20;93.30;;;;;;5025341;28;20200;-95
2023/06/21 07:52:11;;;;;;;5.80;4.50;;;26.30;94.30;;;;;;5010081;28;20185;-96
2023/06/21 07:54:38;;;;;;;5.30;4.53;;;26.40;94.60;;;;;;5007861;28;20196;-96
2023/06/21 07:57:04;;;;;;;4.97;3.97;;;26.40;93.40;;;;;;5005248;28;20185;-96
2023/06/21 07:59:31;;;;;;;4.97;3.95;;;26.40;93.40;;;;;;5005403;28;20192;-96
2023/06/21 08:01:56;;;;;;;6.25;4.10;;;26.50;91.00;;;;;;5021636;28;20224;-96
2023/06/21 08:04:22;;;;;;;4.70;4.20;;;26.50;91.20;;;;;;5024475;28;20182;-95
2023/06/21 08:06:48;;;;;;;4.07;3.67;;;26.60;90.80;;;;;;5009233;28;20237;-95
2023/06/21 08:09:13;;;;;;;5.28;4.40;;;26.60;87.70;;;;;;5024833;28;20185;-95
2023/06/21 08:11:39;;;;;;;4.28;3.88;;;26.30;82.80;;;;;;5008700;28;20269;-96
2023/06/21 08:14:05;;;;;;;5.05;4.03;;;26.40;87.70;;;;;;5027265;28;20166;-96
2023/06/21 08:16:31;;;;;;;6.25;4.35;;;26.50;88.90;;;;;;5025421;28;20181;-94
2023/06/21 08:18:56;;;;;;;6.43;3.53;;;26.50;82.70;;;;;;5025083;28;20625;-95
2023/06/21 08:21:22;;;;;;;5.03;4.35;;;26.60;79.20;;;;;;5026871;28;20204;-96
2023/06/21 08:23:48;;;;;;;4.68;4.10;;;26.50;83.60;;;;;;4991382;28;20212;-96
2023/06/21 08:26:13;;;;;;;4.70;4.05;;;26.50;82.70;;;;;;5007848;28;20277;-96
2023/06/21 08:28:39;;;;;;;5.10;4.25;;;26.40;82.80;;;;;;5021856;28;20225;-96
2023/06/21 08:31:05;;;;;;;4.45;4.03;;;26.50;84.20;;;;;;5022160;28;20185;-94
2023/06/21 08:33:30;;;;;;;7.75;4.50;;;26.50;83.00;;;;;;5003362;28;20597;-96
2023/06/21 08:35:56;;;;;;;4.65;3.90;;;26.50;83.90;;;;;;5022141;28;20588;-96
2023/06/21 08:38:22;;;;;;;4.22;3.50;;;26.60;85.00;;;;;;5006597;28;20178;-96
2023/06/21 08:40:48;;;;;;;4.78;4.05;;;26.70;78.50;;;;;;5024610;28;20196;-95
2023/06/21 08:43:13;;;;;;;3.90;3.50;;;26.90;77.30;;;;;;5025455;28;20209;-96
2023/06/21 08:45:39;;;;;;;4.93;3.83;;;27.10;76.60;;;;;;5009986;28;20223;-95
2023/06/21 08:48:06;;;;;;;3.72;3.35;;;27.20;77.20;;;;;;5008000;28;20179;-96
2023/06/21 08:50:36;;;;;;;4.28;3.88;;;27.50;77.60;;;;;;4992746;28;20193;-96
2023/06/21 08:53:06;;;;;;;4.30;3.90;;;27.50;77.70;;;;;;5028194;28;20189;-94
2023/06/21 08:55:35;;;;;;;4.78;3.95;;;27.60;77.70;;;;;;5025381;28;20189;-96
2023/06/21 08:58:05;;;;;;;3.92;3.42;;;27.60;75.20;;;;;;5018816;28;20177;-96
2023/06/21 09:00:51;;;;;;;4.25;3.85;;;27.70;76.50;;;;;;5017115;28;20176;-96
2023/06/21 09:03:23;;;;;;;4.90;3.92;;;27.80;78.60;;;;;;5020949;28;20201;-96
2023/06/21 09:05:55;;;;;;;4.43;3.60;;;27.90;76.00;;;;;;5021205;28;20169;-95
2023/06/21 09:08:21;;;;;;;5.25;3.92;;;28.10;75.30;;;;;;5013368;28;20149;-95
2023/06/21 09:10:48;;;;;;;4.22;3.47;;;28.20;74.20;;;;;;5015912;28;20177;-96
2023/06/21 09:13:14;;;;;;;4.38;3.95;;;28.00;73.10;;;;;;5033490;28;20245;-95
2023/06/21 09:15:41;;;;;;;4.35;3.65;;;27.90;72.90;;;;;;5016386;28;20214;-93
2023/06/21 09:18:07;;;;;;;4.65;3.53;;;28.10;78.00;;;;;;5038137;28;20201;-94
2023/06/21 09:20:33;;;;;;;8.30;3.90;;;28.20;73.60;;;;;;5040865;28;20184;-94
2023/06/21 09:22:59;;;;;;;5.15;4.00;;;28.40;75.70;;;;;;5040940;28;20207;-86
2023/06/21 09:25:26;;;;;;;4.57;3.97;;;28.60;73.40;;;;;;5040290;28;20221;-94
2023/06/21 09:27:53;;;;;;;5.30;4.18;;;28.50;73.70;;;;;;5015560;28;20260;-96
2023/06/21 09:30:19;;;;;;;4.40;3.80;;;28.40;73.30;;;;;;4993996;28;20590;-96
2023/06/21 09:32:46;;;;;;;4.28;3.88;;;28.30;69.90;;;;;;5026264;28;20189;-96
2023/06/21 09:35:13;;;;;;;4.38;3.97;;;27.90;74.20;;;;;;5028214;28;20200;-95
2023/06/21 09:37:39;;;;;;;4.32;3.92;;;28.00;73.10;;;;;;4991417;28;20192;-95
2023/06/21 09:40:05;;;;;;;4.75;4.07;;;27.90;72.90;;;;;;5025419;28;20209;-95
2023/06/21 09:42:36;;;;;;;6.57;4.00;;;27.80;73.60;;;;;;5028981;28;20723;-95
2023/06/21 09:45:02;;;;;;;4.60;3.72;;;27.80;75.30;;;;;;5029961;28;20248;-89
2023/06/21 09:47:31;;;;;;;4.10;3.70;;;28.10;74.40;;;;;;4998447;28;20192;-96
2023/06/21 09:49:59;;;;;;;3.72;3.40;;;28.40;72.80;;;;;;5013413;28;20181;-96
2023/06/21 09:52:26;;;;;;;5.47;4.20;;;28.60;72.90;;;;;;5027607;28;20181;-95
2023/06/21 09:54:55;;;;;;;3.53;3.22;;;28.50;69.20;;;;;;5029172;28;20193;-94
2023/06/21 09:57:29;;;;;;;4.55;4.03;;;28.50;70.70;;;;;;5010301;28;20185;-95
2023/06/21 09:59:56;;;;;;;4.55;3.88;;;28.70;70.60;;;;;;5027122;28;20279;-95
2023/06/21 10:02:21;;;;;;;4.88;4.15;;;28.70;65.80;;;;;;5009655;28;20570;-95
2023/06/21 10:04:50;;;;;;;4.60;4.18;;;28.40;67.20;;;;;;5023779;28;20184;-94
2023/06/21 10:07:20;;;;;;;4.50;4.10;;;28.30;69.90;;;;;;5002716;28;20264;-95
2023/06/21 10:09:47;;;;;;;6.60;5.18;;;28.40;69.10;;;;;;5022052;28;20173;-95
2023/06/21 10:12:14;;;;;;;4.15;3.75;;;28.00;71.90;;;;;;5003994;28;20212;-93
2023/06/21 10:14:41;;;;;;;4.45;4.05;;;28.10;72.60;;;;;;5018359;28;20181;-93
2023/06/21 10:17:08;;;;;;;4.13;3.45;;;28.40;70.50;;;;;;5017217;28;20204;-91
2023/06/21 10:19:35;;;;;;;5.57;4.22;;;28.50;71.20;;;;;;5018150;28;20178;-94
2023/06/21 10:22:09;;;;;;;4.15;3.75;;;28.30;72.10;;;;;;4986811;28;20231;-94
2023/06/21 10:24:47;;;;;;;4.15;3.58;;;28.40;70.50;;;;;;5001067;28;20188;-95
2023/06/21 10:27:15;;;;;;;4.97;3.90;;;28.60;68.00;;;;;;5019191;28;20256;-94
2023/06/21 10:29:43;;;;;;;5.07;3.50;;;28.50;67.70;;;;;;5018507;28;20173;-94
2023/06/21 10:32:09;;;;;;;4.18;3.78;;;28.40;66.80;;;;;;5020751;28;20209;-93
2023/06/21 10:34:55;;;;;;;4.60;3.90;;;28.70;71.20;;;;;;4999688;28;20509;-93
2023/06/21 10:37:48;;;;;;;4.28;3.13;;;29.00;68.60;;;;;;5018726;28;20167;-95
2023/06/21 10:40:15;;;;;;;4.95;3.95;;;29.40;65.00;;;;;;5017708;28;20154;-92
2023/06/21 10:42:43;;;;;;;5.13;3.88;;;29.60;64.70;;;;;;5015802;28;20209;-95
2023/06/21 10:45:10;;;;;;;4.00;3.60;;;30.00;67.70;;;;;;5000509;28;20177;-94
2023/06/21 10:47:37;;;;;;;3.83;3.47;;;30.10;64.80;;;;;;5017063;28;20328;-92
2023/06/21 10:50:03;;;;;;;5.32;3.53;;;29.90;62.20;;;;;;5017895;28;20256;-93
2023/06/21 10:52:30;;;;;;;6.30;4.07;;;29.70;65.80;;;;;;4999161;28;20192;-93
2023/06/21 10:54:57;;;;;;;5.03;4.28;;;29.60;63.20;;;;;;5020820;28;20177;-94
2023/06/21 10:57:29;;;;;;;5.07;4.32;;;29.70;66.40;;;;;;5009664;28;20272;-91
2023/06/21 11:00:01;;;;;;;5.72;4.10;;;29.20;61.10;;;;;;5028471;28;20192;-96
2023/06/21 11:02:27;;;;;;;7.03;4.28;;;28.70;64.50;;;;;;5003081;28;20241;-96
2023/06/21 11:05:19;;;;;;;7.50;3.63;;;28.90;64.10;;;;;;5017440;28;20181;-94
2023/06/21 11:08:05;;;;;;;3.97;3.58;;;28.60;65.50;;;;;;5019918;28;20260;-94
2023/06/21 11:10:50;;;;;;;4.82;3.85;;;28.70;66.10;;;;;;5025170;28;20168;-95
2023/06/21 11:13:32;;;;;;;4.18;3.67;;;29.00;65.20;;;;;;5022168;28;20177;-89
2023/06/21 11:16:15;;;;;;;4.35;3.40;;;29.10;62.40;;;;;;5022698;28;20175;-95
2023/06/21 11:18:59;;;;;;;5.32;3.72;;;29.40;62.80;;;;;;5039241;28;20232;-94
2023/06/21 11:21:49;;;;;;;4.65;3.75;;;29.70;62.30;;;;;;5001665;28;20173;-93
2023/06/21 11:24:16;;;;;;;7.00;4.30;;;29.90;65.50;;;;;;5017987;28;20239;-95
2023/06/21 11:27:00;;;;;;;4.00;3.60;;;30.10;62.90;;;;;;5001589;28;20185;-95
2023/06/21 11:29:38;;;;;;;5.03;3.80;;;30.10;58.80;;;;;;5022243;28;20162;-94
2023/06/21 11:32:12;;;;;;;6.15;4.63;;;29.40;61.00;;;;;;5019989;28;20177;-93
2023/06/21 11:34:53;;;;;;;4.13;3.72;;;29.00;63.60;;;;;;5019388;28;20174;-93
2023/06/21 11:37:35;;;;;;;4.50;4.10;;;29.30;65.60;;;;;;4998481;28;20203;-93
2023/06/21 11:40:03;;;;;;;5.18;3.88;;;29.50;65.70;;;;;;5016379;28;20169;-93
2023/06/21 11:42:52;;;;;;;7.45;3.58;;;29.50;62.70;;;;;;5015141;28;20228;-95
2023/06/21 11:45:31;;;;;;;4.68;3.90;;;29.40;60.50;;;;;;5016110;28;20188;-90
2023/06/21 11:48:03;;;;;;;4.03;3.63;;;29.40;61.10;;;;;;5017337;28;20256;-96
2023/06/21 11:50:42;;;;;;;3.80;3.20;;;29.40;59.20;;;;;;4998926;28;20181;-95
2023/06/21 11:53:23;;;;;;;3.72;2.97;;;29.50;58.10;;;;;;5017716;28;20185;-92
2023/06/21 11:56:00;;;;;;;4.13;3.67;;;29.60;53.80;;;;;;5017806;28;20214;-93
2023/06/21 11:58:26;;;;;;;4.80;4.07;;;29.60;56.40;;;;;;4982787;28;20185;-95
2023/06/21 12:00:53;;;;;;;4.00;3.60;;;29.20;57.50;;;;;;4998932;28;20322;-96
2023/06/21 12:03:21;;;;;;;3.83;3.42;;;29.30;62.00;;;;;;4997962;28;20213;-94
2023/06/21 12:05:55;;;;;;;7.05;3.60;;;29.50;58.30;;;;;;5015766;28;20192;-96
2023/06/21 12:08:26;;;;;;;4.10;3.42;;;29.60;59.00;;;;;;5016458;28;20275;-95
2023/06/21 12:10:52;;;;;;;4.30;3.67;;;29.70;56.60;;;;;;5015138;28;20161;-94
2023/06/21 12:13:19;;;;;;;4.15;3.40;;;29.20;56.40;;;;;;5015412;28;20188;-96
2023/06/21 12:15:56;;;;;;;4.72;3.80;;;29.30;59.30;;;;;;5015998;28;20177;-92
2023/06/21 12:18:23;;;;;;;5.63;3.97;;;29.40;58.70;;;;;;5016396;28;20169;-93
2023/06/21 12:20:49;;;;;;;4.63;3.60;;;29.50;59.60;;;;;;5008070;28;20217;-96
2023/06/21 12:23:15;;;;;;;4.80;3.53;;;29.60;59.50;;;;;;5016485;28;20688;-94
2023/06/21 12:25:42;;;;;;;4.90;4.00;;;29.60;58.20;;;;;;5016671;28;20240;-94
2023/06/21 12:28:08;;;;;;;5.75;4.32;;;29.60;60.20;;;;;;5016780;28;20239;-95
2023/06/21 12:30:44;;;;;;;5.85;4.25;;;29.50;58.40;;;;;;5016568;28;20268;-94
2023/06/21 12:33:10;;;;;;;5.28;3.67;;;29.60;58.80;;;;;;5002597;28;20263;-96
2023/06/21 12:35:37;;;;;;;4.05;3.35;;;29.70;58.40;;;;;;5005780;28;20205;-95
2023/06/21 12:38:13;;;;;;;4.55;3.72;;;29.40;56.60;;;;;;5024806;28;20319;-94
2023/06/21 12:40:57;;;;;;;3.97;3.58;;;29.60;57.50;;;;;;5007240;28;20636;-94
2023/06/21 12:43:34;;;;;;;4.28;3.58;;;29.50;58.00;;;;;;5024303;28;20208;-95
2023/06/21 12:46:01;;;;;;;3.88;3.45;;;29.40;57.30;;;;;;5024612;28;20180;-92